createdAt,value
2023-03-02T00:01:45.679Z,102781.28
2023-03-02T00:06:42.213Z,102778.16
2023-03-02T00:11:39.127Z,102774.84
2023-03-02T00:16:35.559Z,102770.66
2023-03-02T00:21:32.073Z,102766.09
2023-03-02T00:26:28.541Z,102781.03
2023-03-02T00:31:25.037Z,102764.50
2023-03-02T00:36:23.276Z,102771.94
2023-03-02T00:41:21.870Z,102752.84
2023-03-02T00:46:21.029Z,102754.31
2023-03-02T00:51:18.937Z,102757.44
2023-03-02T00:56:15.414Z,102748.50
2023-03-02T01:01:12.806Z,102754.97
2023-03-02T01:06:16.393Z,102741.22
2023-03-02T01:11:18.425Z,102737.72
2023-03-02T01:16:14.953Z,102735.84
2023-03-02T01:21:14.218Z,102725.91
2023-03-02T01:26:11.589Z,102718.47
2023-03-02T01:31:08.106Z,102711.78
2023-03-02T01:36:04.876Z,102714.41
2023-03-02T01:41:01.332Z,102710.09
2023-03-02T01:46:07.033Z,102715.50
2023-03-02T01:51:05.225Z,102707.22
2023-03-02T01:56:03.557Z,102703.31
2023-03-02T02:01:00.772Z,102697.28
2023-03-02T02:06:08.227Z,102700.38
2023-03-02T02:11:06.461Z,102703.06
2023-03-02T02:16:03.506Z,102697.28
2023-03-02T02:20:59.908Z,102690.66
2023-03-02T02:25:59.830Z,102687.75
2023-03-02T02:31:10.102Z,102688.59
2023-03-02T02:36:12.926Z,102689.00
2023-03-02T02:41:18.387Z,102685.25
2023-03-02T02:46:15.615Z,102675.72
2023-03-02T02:51:20.091Z,102672.81
2023-03-02T02:56:17.290Z,102676.16
2023-03-02T03:01:25.254Z,102668.28
2023-03-02T03:06:38.071Z,102672.81
2023-03-02T03:11:36.693Z,102671.19
2023-03-02T03:16:34.458Z,102670.13
2023-03-02T03:21:31.180Z,102669.91
2023-03-02T03:26:27.943Z,102684.00
2023-03-02T03:31:26.849Z,102671.19
2023-03-02T03:36:23.374Z,102672.84
2023-03-02T03:41:20.078Z,102678.81
2023-03-02T03:46:16.932Z,102669.09
2023-03-02T03:51:14.312Z,102670.31
2023-03-02T03:56:10.799Z,102669.28
2023-03-02T04:01:07.224Z,102672.16
2023-03-02T04:06:03.738Z,102678.53
2023-03-02T04:11:00.203Z,102680.16
2023-03-02T04:15:56.626Z,102676.47
2023-03-02T04:20:53.024Z,102684.75
2023-03-02T04:25:49.497Z,102674.41
2023-03-02T04:30:45.984Z,102677.13
2023-03-02T04:35:42.415Z,102678.75
2023-03-02T04:40:39.369Z,102677.28
2023-03-02T04:45:35.874Z,102684.69
2023-03-02T04:50:32.530Z,102672.94
2023-03-02T04:55:29.045Z,102680.31
2023-03-02T05:00:25.511Z,102688.44
2023-03-02T05:05:24.693Z,102692.81
2023-03-02T05:10:22.821Z,102698.16
2023-03-02T05:15:19.208Z,102693.41
2023-03-02T05:20:15.964Z,102692.63
2023-03-02T05:25:12.465Z,102704.59
2023-03-02T05:30:09.478Z,102700.41
2023-03-02T05:35:06.599Z,102692.97
2023-03-02T05:40:03.690Z,102697.34
2023-03-02T05:45:00.130Z,102692.00
2023-03-02T05:49:56.701Z,102693.31
2023-03-02T05:54:53.185Z,102693.53
2023-03-02T05:59:50.831Z,102682.94
2023-03-02T06:04:47.313Z,102677.13
2023-03-02T06:09:43.697Z,102688.72
2023-03-02T06:14:40.228Z,102694.34
2023-03-02T06:19:36.731Z,102710.72
2023-03-02T06:24:33.265Z,102706.25
2023-03-02T06:29:29.702Z,102708.25
2023-03-02T06:34:26.283Z,102706.66
2023-03-02T06:39:23.243Z,102701.91
2023-03-02T06:44:19.751Z,102696.31
2023-03-02T06:49:16.241Z,102697.53
2023-03-02T06:54:12.812Z,102697.53
2023-03-02T06:59:09.256Z,102700.41
2023-03-02T07:04:05.825Z,102692.78
2023-03-02T07:09:02.490Z,102692.63
2023-03-02T07:14:02.308Z,102682.63
2023-03-02T07:18:58.933Z,102687.66
2023-03-02T07:23:55.628Z,102691.91
2023-03-02T07:28:52.651Z,102685.59
2023-03-02T07:33:49.072Z,102686.19
2023-03-02T07:38:45.479Z,102686.03
2023-03-02T07:43:41.962Z,102681.09
2023-03-02T07:48:38.465Z,102678.59
2023-03-02T07:53:34.923Z,102678.59
2023-03-02T07:58:31.744Z,102669.28
2023-03-02T08:03:28.405Z,102670.13
2023-03-02T08:08:24.850Z,102662.47
2023-03-02T08:13:21.268Z,102657.09
2023-03-02T08:18:17.703Z,102672.22
2023-03-02T08:23:14.091Z,102662.69
2023-03-02T08:28:10.633Z,102657.50
2023-03-02T08:33:07.363Z,102663.69
2023-03-02T08:38:03.793Z,102655.44
2023-03-02T08:43:00.218Z,102662.47
2023-03-02T08:47:56.674Z,102663.50
2023-03-02T08:52:53.279Z,102658.75
2023-03-02T08:57:49.907Z,102652.53
2023-03-02T09:02:46.337Z,102659.13
2023-03-02T09:07:42.730Z,102650.41
2023-03-02T09:12:40.232Z,102642.16
2023-03-02T09:17:36.683Z,102636.72
2023-03-02T09:22:35.772Z,102633.59
2023-03-02T09:27:32.538Z,102640.00
2023-03-02T09:32:29.077Z,102639.59
2023-03-02T09:37:27.648Z,102641.69
2023-03-02T09:42:27.098Z,102639.50
2023-03-02T09:48:03.790Z,102642.47
2023-03-02T09:53:29.291Z,102638.69
2023-03-02T09:58:31.686Z,102634.69
2023-03-02T10:03:36.447Z,102643.88
2023-03-02T10:08:37.840Z,102642.84
2023-03-02T10:14:04.006Z,102651.94
2023-03-02T10:19:17.389Z,102646.19
2023-03-02T10:24:35.229Z,102644.09
2023-03-02T10:29:59.963Z,102639.19
2023-03-02T10:34:57.952Z,102647.34
2023-03-02T10:39:55.752Z,102636.03
2023-03-02T10:44:59.295Z,102642.09
2023-03-02T10:49:57.604Z,102632.84
2023-03-02T10:55:14.169Z,102643.59
2023-03-02T11:00:11.386Z,102639.47
2023-03-02T11:05:33.788Z,102628.78
2023-03-02T11:10:50.487Z,102626.88
2023-03-02T11:15:50.141Z,102628.56
2023-03-02T11:20:52.097Z,102625.09
2023-03-02T11:25:58.513Z,102616.81
2023-03-02T11:30:59.021Z,102614.81
2023-03-02T11:36:25.424Z,102614.09
2023-03-02T11:41:31.042Z,102608.03
2023-03-02T11:46:33.019Z,102597.22
2023-03-02T11:51:35.448Z,102595.75
2023-03-02T11:56:36.460Z,102595.91
2023-03-02T12:01:36.445Z,102605.16
2023-03-02T12:06:40.324Z,102596.78
2023-03-02T12:11:40.755Z,102588.03
2023-03-02T12:16:40.893Z,102577.72
2023-03-02T12:21:42.373Z,102580.75
2023-03-02T12:26:38.961Z,102572.09
2023-03-02T12:31:47.353Z,102567.78
2023-03-02T12:36:44.404Z,102559.59
2023-03-02T12:42:09.546Z,102551.75
2023-03-02T12:47:16.195Z,102548.56
2023-03-02T12:52:34.738Z,102535.53
2023-03-02T12:57:31.738Z,102526.81
2023-03-02T13:02:33.754Z,102532.03
2023-03-02T13:07:37.455Z,102534.03
2023-03-02T13:12:35.880Z,102517.81
2023-03-02T13:17:32.947Z,102515.41
2023-03-02T13:22:29.896Z,102520.94
2023-03-02T13:27:28.043Z,102510.38
2023-03-02T13:32:26.747Z,102511.66
2023-03-02T13:37:43.667Z,102501.88
2023-03-02T13:42:40.960Z,102499.28
2023-03-02T13:47:37.454Z,102488.06
2023-03-02T13:52:34.165Z,102497.06
2023-03-02T13:57:32.275Z,102487.69
2023-03-02T14:02:30.702Z,102471.16
2023-03-02T14:07:27.157Z,102467.19
2023-03-02T14:12:30.637Z,102465.09
2023-03-02T14:17:27.421Z,102450.88
2023-03-02T14:22:26.538Z,102450.16
2023-03-02T14:27:26.960Z,102448.00
2023-03-02T14:32:23.454Z,102442.53
2023-03-02T14:37:25.624Z,102444.16
2023-03-02T14:42:23.025Z,102433.72
2023-03-02T14:47:19.658Z,102427.31
2023-03-02T14:52:30.121Z,102428.38
2023-03-02T14:57:28.567Z,102430.41
2023-03-02T15:02:26.915Z,102425.47
2023-03-02T15:07:25.522Z,102418.16
2023-03-02T15:12:21.941Z,102428.00
2023-03-02T15:17:18.385Z,102423.69
2023-03-02T15:22:14.946Z,102430.13
2023-03-02T15:27:11.445Z,102425.94
2023-03-02T15:32:07.978Z,102409.16
2023-03-02T15:37:04.438Z,102408.72
2023-03-02T15:42:01.091Z,102403.28
2023-03-02T15:46:59.154Z,102399.78
2023-03-02T15:51:59.655Z,102389.91
2023-03-02T15:56:56.239Z,102387.81
2023-03-02T16:01:53.842Z,102403.00
2023-03-02T16:06:50.348Z,102407.53
2023-03-02T16:11:49.014Z,102397.78
2023-03-02T16:16:46.460Z,102399.31
2023-03-02T16:21:42.954Z,102397.84
2023-03-02T16:26:39.424Z,102405.41
2023-03-02T16:31:37.878Z,102402.38
2023-03-02T16:36:36.559Z,102407.59
2023-03-02T16:41:33.951Z,102419.53
2023-03-02T16:46:32.323Z,102428.44
2023-03-02T16:51:28.776Z,102431.81
2023-03-02T16:56:25.273Z,102439.41
2023-03-02T17:01:21.944Z,102437.75
2023-03-02T17:06:20.745Z,102440.75
2023-03-02T17:11:18.231Z,102445.56
2023-03-02T17:16:16.638Z,102449.72
2023-03-02T17:21:14.986Z,102447.72
2023-03-02T17:26:11.505Z,102452.03
2023-03-02T17:31:08.576Z,102450.47
2023-03-02T17:36:07.395Z,102447.78
2023-03-02T17:41:05.474Z,102450.22
2023-03-02T17:46:20.530Z,102456.09
2023-03-02T17:51:17.497Z,102449.75
2023-03-02T17:56:15.324Z,102452.78
2023-03-02T18:01:12.716Z,102464.19
2023-03-02T18:06:09.165Z,102450.50
2023-03-02T18:11:06.140Z,102459.22
2023-03-02T18:16:02.840Z,102441.81
2023-03-02T18:20:59.553Z,102452.47
2023-03-02T18:25:56.093Z,102449.16
2023-03-02T18:30:52.518Z,102450.81
2023-03-02T18:35:49.117Z,102441.66
2023-03-02T18:40:45.779Z,102435.97
2023-03-02T18:45:42.208Z,102444.13
2023-03-02T18:50:39.556Z,102450.56
2023-03-02T18:55:40.290Z,102449.34
2023-03-02T19:00:37.466Z,102449.91
2023-03-02T19:05:33.891Z,102456.38
2023-03-02T19:10:30.362Z,102463.88
2023-03-02T19:15:26.942Z,102461.47
2023-03-02T19:20:23.390Z,102452.75
2023-03-02T19:25:20.120Z,102461.06
2023-03-02T19:30:22.873Z,102462.84
2023-03-02T19:35:24.796Z,102469.03
2023-03-02T19:40:24.757Z,102471.06
2023-03-02T19:45:28.492Z,102473.56
2023-03-02T19:50:26.988Z,102477.44
2023-03-02T19:55:24.395Z,102471.91
2023-03-02T20:00:21.146Z,102461.63
2023-03-02T20:05:17.684Z,102466.69
2023-03-02T20:10:34.397Z,102466.34
2023-03-02T20:15:33.280Z,102466.78
2023-03-02T20:20:30.533Z,102485.03
2023-03-02T20:25:28.054Z,102485.09
2023-03-02T20:30:37.805Z,102484.28
2023-03-02T20:35:39.863Z,102482.63
2023-03-02T20:40:37.280Z,102475.56
2023-03-02T20:45:34.212Z,102479.31
2023-03-02T20:50:33.111Z,102482.22
2023-03-02T20:55:29.584Z,102483.47
2023-03-02T21:00:28.930Z,102470.66
2023-03-02T21:05:26.826Z,102479.75
2023-03-02T21:10:28.504Z,102475.22
2023-03-02T21:15:27.141Z,102477.91
2023-03-02T21:20:25.662Z,102473.97
2023-03-02T21:25:22.058Z,102460.50
2023-03-02T21:30:30.616Z,102459.44
2023-03-02T21:35:27.135Z,102459.88
2023-03-02T21:40:31.343Z,102458.63
2023-03-02T21:45:29.079Z,102451.19
2023-03-02T21:50:28.225Z,102454.31
2023-03-02T21:55:26.871Z,102448.28
2023-03-02T22:00:32.701Z,102456.16
2023-03-02T22:05:29.381Z,102459.06
2023-03-02T22:10:46.290Z,102454.09
2023-03-02T22:15:46.557Z,102449.72
2023-03-02T22:20:45.218Z,102450.34
2023-03-02T22:25:45.447Z,102452.00
2023-03-02T22:30:41.920Z,102452.84
2023-03-02T22:35:38.436Z,102451.16
2023-03-02T22:40:35.660Z,102457.81
2023-03-02T22:45:32.130Z,102464.44
2023-03-02T22:50:30.554Z,102462.78
2023-03-02T22:55:39.291Z,102477.25
2023-03-02T23:00:40.550Z,102472.69
2023-03-02T23:05:37.228Z,102474.97
2023-03-02T23:10:33.747Z,102473.94
2023-03-02T23:15:34.994Z,102468.56
2023-03-02T23:20:33.681Z,102468.94
2023-03-02T23:25:30.119Z,102459.44
2023-03-02T23:30:26.974Z,102455.28
2023-03-02T23:35:23.598Z,102452.41
2023-03-02T23:40:21.533Z,102448.44
2023-03-02T23:45:18.578Z,102448.25
2023-03-02T23:50:15.019Z,102452.19
2023-03-02T23:55:11.638Z,102450.53
